createdAt,value
2022-12-18T00:01:19.720Z,102713.09
2022-12-18T00:06:24.513Z,102714.13
2022-12-18T00:11:30.443Z,102705.72
2022-12-18T00:16:37.873Z,102714.63
2022-12-18T00:21:41.685Z,102703.81
2022-12-18T00:26:45.684Z,102689.06
2022-12-18T00:31:50.938Z,102681.16
2022-12-18T00:36:54.711Z,102672.72
2022-12-18T00:42:16.545Z,102671.19
2022-12-18T00:47:21.563Z,102679.06
2022-12-18T00:52:25.413Z,102673.81
2022-12-18T00:57:29.798Z,102667.44
2022-12-18T01:02:35.116Z,102662.09
2022-12-18T01:07:39.637Z,102665.94
2022-12-18T01:12:43.829Z,102679.69
2022-12-18T01:17:49.188Z,102686.34
2022-12-18T01:22:52.909Z,102685.62
2022-12-18T01:27:56.759Z,102685.03
2022-12-18T01:33:03.309Z,102672.91
2022-12-18T01:38:07.906Z,102675.03
2022-12-18T01:43:11.584Z,102675.62
2022-12-18T01:48:16.948Z,102670.28
2022-12-18T01:53:24.410Z,102662.91
2022-12-18T01:58:41.587Z,102675.53
2022-12-18T02:03:47.414Z,102662.41
2022-12-18T02:09:04.692Z,102670.00
2022-12-18T02:14:20.091Z,102668.88
2022-12-18T02:19:50.321Z,102668.75
2022-12-18T02:25:06.914Z,102664.63
2022-12-18T02:30:12.867Z,102661.47
2022-12-18T02:35:22.770Z,102658.56
2022-12-18T02:40:30.368Z,102650.66
2022-12-18T02:45:37.027Z,102644.81
2022-12-18T02:50:54.202Z,102634.50
2022-12-18T02:56:07.312Z,102628.78
2022-12-18T03:01:20.896Z,102633.59
2022-12-18T03:06:30.056Z,102629.28
2022-12-18T03:11:56.183Z,102613.22
2022-12-18T03:17:04.749Z,102615.81
2022-12-18T03:22:09.915Z,102615.44
2022-12-18T03:27:21.869Z,102612.78
2022-12-18T03:32:31.526Z,102632.78
2022-12-18T03:37:36.296Z,102631.47
2022-12-18T03:42:47.753Z,102620.75
2022-12-18T03:48:02.084Z,102601.75
2022-12-18T03:53:18.915Z,102592.06
2022-12-18T03:58:27.828Z,102584.72
2022-12-18T04:03:36.499Z,102579.03
2022-12-18T04:08:41.561Z,102580.56
2022-12-18T04:13:46.596Z,102573.50
2022-12-18T04:18:52.469Z,102566.22
2022-12-18T04:23:56.782Z,102568.94
2022-12-18T04:29:00.589Z,102577.62
2022-12-18T04:34:06.449Z,102586.37
2022-12-18T04:39:12.378Z,102603.41
2022-12-18T04:44:16.207Z,102598.47
2022-12-18T04:49:21.793Z,102592.94
2022-12-18T04:54:25.519Z,102600.59
2022-12-18T04:59:29.415Z,102603.53
2022-12-18T05:04:34.716Z,102593.44
2022-12-18T05:09:38.716Z,102587.09
2022-12-18T05:14:42.387Z,102600.91
2022-12-18T05:19:47.425Z,102594.56
2022-12-18T05:24:51.106Z,102610.06
2022-12-18T05:29:54.804Z,102599.47
2022-12-18T05:34:59.872Z,102597.72
2022-12-18T05:40:04.451Z,102597.81
2022-12-18T05:45:09.135Z,102599.94
2022-12-18T05:50:14.160Z,102587.25
2022-12-18T05:55:18.129Z,102578.81
2022-12-18T06:00:21.927Z,102593.28
2022-12-18T06:05:27.141Z,102586.59
2022-12-18T06:10:30.935Z,102597.34
2022-12-18T06:15:37.868Z,102589.75
2022-12-18T06:20:43.143Z,102581.41
2022-12-18T06:25:46.803Z,102583.81
2022-12-18T06:30:51.379Z,102580.50
2022-12-18T06:36:00.997Z,102579.69
2022-12-18T06:41:08.838Z,102557.09
2022-12-18T06:46:12.741Z,102550.94
2022-12-18T06:51:20.359Z,102550.53
2022-12-18T06:56:24.093Z,102551.16
2022-12-18T07:01:27.943Z,102544.28
2022-12-18T07:06:33.287Z,102540.59
2022-12-18T07:11:37.019Z,102547.53
2022-12-18T07:16:41.723Z,102535.03
2022-12-18T07:21:46.825Z,102514.41
2022-12-18T07:26:50.896Z,102495.88
2022-12-18T07:31:54.647Z,102489.66
2022-12-18T07:36:59.996Z,102495.81
2022-12-18T07:42:21.252Z,102485.00
2022-12-18T07:47:26.184Z,102462.44
2022-12-18T07:52:32.245Z,102457.69
2022-12-18T07:57:56.393Z,102466.44
2022-12-18T08:03:00.700Z,102470.28
2022-12-18T08:08:05.919Z,102473.19
2022-12-18T08:13:09.592Z,102466.88
2022-12-18T08:18:14.565Z,102459.09
2022-12-18T08:23:19.955Z,102464.09
2022-12-18T08:28:23.777Z,102462.34
2022-12-18T08:33:28.311Z,102467.00
2022-12-18T08:38:33.961Z,102458.75
2022-12-18T08:43:57.827Z,102448.28
2022-12-18T08:49:01.780Z,102436.87
2022-12-18T08:54:08.413Z,102444.25
2022-12-18T08:59:17.563Z,102435.88
2022-12-18T09:04:23.808Z,102464.41
2022-12-18T09:09:28.967Z,102468.13
2022-12-18T09:14:32.648Z,102465.78
2022-12-18T09:19:36.382Z,102463.47
2022-12-18T09:24:41.566Z,102444.34
2022-12-18T09:29:45.375Z,102453.22
2022-12-18T09:34:49.159Z,102443.31
2022-12-18T09:39:54.272Z,102423.25
2022-12-18T09:44:58.290Z,102418.59
2022-12-18T09:50:06.223Z,102419.84
2022-12-18T09:55:26.525Z,102413.13
2022-12-18T10:00:30.411Z,102434.28
2022-12-18T10:05:40.313Z,102433.69
2022-12-18T10:10:50.761Z,102431.88
2022-12-18T10:16:05.070Z,102426.37
2022-12-18T10:21:15.029Z,102422.31
2022-12-18T10:26:20.090Z,102397.41
2022-12-18T10:31:26.561Z,102381.91
2022-12-18T10:36:30.963Z,102372.81
2022-12-18T10:41:36.049Z,102354.38
2022-12-18T10:46:40.120Z,102360.69
2022-12-18T10:51:44.221Z,102360.25
2022-12-18T10:56:49.537Z,102349.34
2022-12-18T11:01:56.022Z,102343.59
2022-12-18T11:07:02.454Z,102352.97
2022-12-18T11:12:18.639Z,102349.38
2022-12-18T11:17:26.502Z,102346.69
2022-12-18T11:22:32.773Z,102325.78
2022-12-18T11:27:37.993Z,102329.22
2022-12-18T11:32:45.359Z,102328.13
2022-12-18T11:37:52.608Z,102318.91
2022-12-18T11:43:06.517Z,102330.91
2022-12-18T11:48:18.921Z,102309.00
2022-12-18T11:53:23.143Z,102298.88
2022-12-18T11:58:43.799Z,102287.28
2022-12-18T12:04:07.747Z,102288.34
2022-12-18T12:09:22.292Z,102277.66
2022-12-18T12:14:43.990Z,102257.94
2022-12-18T12:19:55.490Z,102267.37
2022-12-18T12:25:09.951Z,102246.34
2022-12-18T12:30:22.141Z,102230.19
2022-12-18T12:35:37.278Z,102230.56
2022-12-18T12:40:53.932Z,102216.63
2022-12-18T12:46:07.737Z,102216.63
2022-12-18T12:51:17.693Z,102217.00
2022-12-18T12:56:23.427Z,102213.34
2022-12-18T13:01:36.313Z,102212.78
2022-12-18T13:06:48.007Z,102200.09
2022-12-18T13:12:09.633Z,102191.25
2022-12-18T13:17:36.490Z,102189.22
2022-12-18T13:22:42.880Z,102187.06
2022-12-18T13:28:06.614Z,102193.56
2022-12-18T13:33:56.371Z,102176.13
2022-12-18T13:39:28.901Z,102169.63
2022-12-18T13:44:41.592Z,102172.16
2022-12-18T13:49:48.821Z,102157.59
2022-12-18T13:54:54.516Z,102153.47
2022-12-18T14:00:00.287Z,102148.03
2022-12-18T14:05:06.658Z,102150.16
2022-12-18T14:15:43.770Z,102141.97
2022-12-18T14:20:53.177Z,102136.34
2022-12-18T14:26:00.773Z,102127.09
2022-12-18T14:31:20.367Z,102138.91
2022-12-18T14:36:27.143Z,102137.66
2022-12-18T14:41:30.939Z,102131.25
2022-12-18T14:46:37.042Z,102133.41
2022-12-18T14:51:50.423Z,102129.81
2022-12-18T14:57:00.905Z,102133.53
2022-12-18T15:02:14.532Z,102122.66
2022-12-18T15:07:21.854Z,102112.91
2022-12-18T15:12:35.241Z,102098.81
2022-12-18T15:17:39.232Z,102095.50
2022-12-18T15:22:44.361Z,102089.88
2022-12-18T15:27:49.197Z,102081.56
2022-12-18T15:32:55.518Z,102085.16
2022-12-18T15:38:00.612Z,102077.56
2022-12-18T15:43:24.657Z,102073.00
2022-12-18T15:48:28.500Z,102073.31
2022-12-18T15:53:35.560Z,102080.94
2022-12-18T15:58:39.282Z,102063.91
2022-12-18T16:03:43.326Z,102063.81
2022-12-18T16:08:48.887Z,102054.16
2022-12-18T16:13:52.575Z,102033.63
2022-12-18T16:18:56.292Z,102022.87
2022-12-18T16:24:01.346Z,102029.28
2022-12-18T16:29:05.061Z,102024.47
2022-12-18T16:34:12.491Z,102028.09
2022-12-18T16:39:17.821Z,102014.66
2022-12-18T16:44:22.490Z,102008.50
2022-12-18T16:49:26.182Z,102004.50
2022-12-18T16:54:31.462Z,102008.44
2022-12-18T16:59:35.435Z,102005.81
2022-12-18T17:04:39.899Z,101988.22
2022-12-18T17:09:45.091Z,101985.87
2022-12-18T17:14:49.120Z,101996.66
2022-12-18T17:19:53.342Z,101993.56
2022-12-18T17:24:58.719Z,101990.44
2022-12-18T17:30:02.436Z,101994.38
2022-12-18T17:35:07.461Z,101983.50
2022-12-18T17:40:13.505Z,101988.72
2022-12-18T17:45:17.311Z,101984.00
2022-12-18T17:50:21.185Z,101987.25
2022-12-18T17:55:26.560Z,101997.50
2022-12-18T18:00:30.572Z,101989.44
2022-12-18T18:05:34.375Z,101979.72
2022-12-18T18:10:40.490Z,101983.47
2022-12-18T18:15:44.280Z,101968.25
2022-12-18T18:20:48.028Z,101975.06
2022-12-18T18:25:53.265Z,101967.75
2022-12-18T18:30:57.567Z,101964.44
2022-12-18T18:36:01.548Z,101962.41
2022-12-18T18:41:07.511Z,101955.66
2022-12-18T18:46:13.864Z,101958.87
2022-12-18T18:51:21.734Z,101974.94
2022-12-18T18:56:56.437Z,101973.28
2022-12-18T19:01:52.728Z,101971.50
2022-12-18T19:06:56.785Z,101975.69
2022-12-18T19:12:19.902Z,101979.69
2022-12-18T19:17:28.066Z,101980.41
2022-12-18T19:22:33.583Z,101966.09
2022-12-18T19:27:40.255Z,101973.84
2022-12-18T19:32:43.984Z,101969.94
2022-12-18T19:37:47.747Z,101971.31
2022-12-18T19:42:52.876Z,101966.66
2022-12-18T19:48:01.094Z,101961.72
2022-12-18T19:53:08.531Z,101974.28
2022-12-18T19:58:14.992Z,101988.78
2022-12-18T20:03:28.719Z,101987.31
2022-12-18T20:08:35.739Z,101981.81
2022-12-18T20:13:41.068Z,101982.37
2022-12-18T20:18:45.411Z,101981.34
2022-12-18T20:23:49.442Z,101973.22
2022-12-18T20:28:55.344Z,101973.84
2022-12-18T20:34:01.598Z,101962.22
2022-12-18T20:39:08.974Z,101954.91
2022-12-18T20:44:23.539Z,101946.38
2022-12-18T20:49:28.585Z,101940.72
2022-12-18T20:54:32.358Z,101933.25
2022-12-18T20:59:37.411Z,101930.56
2022-12-18T21:04:41.077Z,101931.03
2022-12-18T21:09:44.895Z,101931.78
2022-12-18T21:14:50.109Z,101929.84
2022-12-18T21:19:54.466Z,101945.87
2022-12-18T21:24:58.802Z,101931.53
2022-12-18T21:30:04.202Z,101928.09
2022-12-18T21:35:08.780Z,101923.31
2022-12-18T21:40:14.551Z,101922.41
2022-12-18T21:45:19.752Z,101907.87
2022-12-18T21:50:23.470Z,101888.59
2022-12-18T21:55:27.334Z,101879.81
2022-12-18T22:00:32.403Z,101867.56
2022-12-18T22:05:36.137Z,101864.31
2022-12-18T22:10:40.023Z,101871.94
2022-12-18T22:15:45.228Z,101858.62
2022-12-18T22:20:49.085Z,101845.16
2022-12-18T22:25:52.762Z,101840.13
2022-12-18T22:30:59.302Z,101827.53
2022-12-18T22:36:06.604Z,101819.31
2022-12-18T22:41:10.581Z,101819.06
2022-12-18T22:46:17.142Z,101812.63
2022-12-18T22:51:21.249Z,101818.16
2022-12-18T22:56:25.394Z,101814.91
2022-12-18T23:01:31.875Z,101805.31
2022-12-18T23:06:41.073Z,101785.72
2022-12-18T23:11:45.023Z,101773.91
2022-12-18T23:16:50.790Z,101768.69
2022-12-18T23:21:58.195Z,101763.88
2022-12-18T23:27:01.970Z,101764.78
2022-12-18T23:32:09.955Z,101752.37
2022-12-18T23:37:24.959Z,101740.69
2022-12-18T23:42:37.480Z,101722.59
2022-12-18T23:47:42.543Z,101719.88
2022-12-18T23:52:46.290Z,101699.38
2022-12-18T23:57:49.986Z,101693.19
